sensor_id;sensor_type;location;lat;lon;timestamp;P1;durP1;ratioP1;P2;durP2;ratioP2
68864;SDS011;55898;52.196;4.420;2022-08-05T00:01:19;2.00;;;2.00;;
68864;SDS011;55898;52.196;4.420;2022-08-05T00:03:46;1.78;;;1.78;;
68864;SDS011;55898;52.196;4.420;2022-08-05T00:06:13;1.81;;;1.81;;
68864;SDS011;55898;52.196;4.420;2022-08-05T00:08:39;1.91;;;1.91;;
68864;SDS011;55898;52.196;4.420;2022-08-05T00:11:09;2.18;;;2.18;;
68864;SDS011;55898;52.196;4.420;2022-08-05T00:13:37;2.07;;;2.07;;
68864;SDS011;55898;52.196;4.420;2022-08-05T00:16:06;2.10;;;2.10;;
68864;SDS011;55898;52.196;4.420;2022-08-05T00:18:34;2.10;;;2.10;;
68864;SDS011;55898;52.196;4.420;2022-08-05T00:21:00;1.82;;;1.82;;
68864;SDS011;55898;52.196;4.420;2022-08-05T00:23:25;1.97;;;1.97;;
68864;SDS011;55898;52.196;4.420;2022-08-05T00:25:51;2.02;;;2.02;;
68864;SDS011;55898;52.196;4.420;2022-08-05T00:28:16;2.03;;;2.03;;
68864;SDS011;55898;52.196;4.420;2022-08-05T00:30:42;2.10;;;2.10;;
68864;SDS011;55898;52.196;4.420;2022-08-05T00:33:08;2.07;;;2.07;;
68864;SDS011;55898;52.196;4.420;2022-08-05T00:35:34;1.92;;;1.92;;
68864;SDS011;55898;52.196;4.420;2022-08-05T00:38:00;2.04;;;2.04;;
68864;SDS011;55898;52.196;4.420;2022-08-05T00:40:26;2.00;;;2.00;;
68864;SDS011;55898;52.196;4.420;2022-08-05T00:42:52;1.88;;;1.88;;
68864;SDS011;55898;52.196;4.420;2022-08-05T00:45:19;2.04;;;2.04;;
68864;SDS011;55898;52.196;4.420;2022-08-05T00:47:44;1.92;;;1.92;;
68864;SDS011;55898;52.196;4.420;2022-08-05T00:50:10;1.82;;;1.82;;
68864;SDS011;55898;52.196;4.420;2022-08-05T00:52:36;2.08;;;2.08;;
68864;SDS011;55898;52.196;4.420;2022-08-05T00:55:02;1.85;;;1.85;;
68864;SDS011;55898;52.196;4.420;2022-08-05T00:57:28;1.97;;;1.97;;
68864;SDS011;55898;52.196;4.420;2022-08-05T00:59:54;1.95;;;1.95;;
68864;SDS011;55898;52.196;4.420;2022-08-05T01:02:19;1.91;;;1.91;;
68864;SDS011;55898;52.196;4.420;2022-08-05T01:04:45;1.76;;;1.76;;
68864;SDS011;55898;52.196;4.420;2022-08-05T01:07:10;1.73;;;1.73;;
68864;SDS011;55898;52.196;4.420;2022-08-05T01:09:36;2.02;;;2.02;;
68864;SDS011;55898;52.196;4.420;2022-08-05T01:12:03;1.80;;;1.80;;
68864;SDS011;55898;52.196;4.420;2022-08-05T01:14:36;1.99;;;1.99;;
68864;SDS011;55898;52.196;4.420;2022-08-05T01:23:20;1.81;;;1.81;;
68864;SDS011;55898;52.196;4.420;2022-08-05T01:25:45;1.99;;;1.99;;
68864;SDS011;55898;52.196;4.420;2022-08-05T01:31:51;2.01;;;2.01;;
68864;SDS011;55898;52.196;4.420;2022-08-05T01:34:27;1.85;;;1.85;;
68864;SDS011;55898;52.196;4.420;2022-08-05T01:37:03;2.02;;;2.02;;
68864;SDS011;55898;52.196;4.420;2022-08-05T01:39:35;2.17;;;2.17;;
68864;SDS011;55898;52.196;4.420;2022-08-05T01:42:06;2.05;;;2.05;;
68864;SDS011;55898;52.196;4.420;2022-08-05T01:44:37;2.00;;;2.00;;
68864;SDS011;55898;52.196;4.420;2022-08-05T01:47:03;1.86;;;1.86;;
68864;SDS011;55898;52.196;4.420;2022-08-05T01:49:30;1.94;;;1.94;;
68864;SDS011;55898;52.196;4.420;2022-08-05T01:52:00;1.91;;;1.91;;
68864;SDS011;55898;52.196;4.420;2022-08-05T01:54:33;1.61;;;1.61;;
68864;SDS011;55898;52.196;4.420;2022-08-05T01:57:05;1.91;;;1.91;;
68864;SDS011;55898;52.196;4.420;2022-08-05T01:59:34;1.75;;;1.75;;
68864;SDS011;55898;52.196;4.420;2022-08-05T02:02:03;1.65;;;1.65;;
68864;SDS011;55898;52.196;4.420;2022-08-05T02:04:32;1.78;;;1.78;;
68864;SDS011;55898;52.196;4.420;2022-08-05T02:07:01;1.87;;;1.87;;
68864;SDS011;55898;52.196;4.420;2022-08-05T02:09:27;1.76;;;1.76;;
68864;SDS011;55898;52.196;4.420;2022-08-05T02:14:33;1.91;;;1.91;;
68864;SDS011;55898;52.196;4.420;2022-08-05T02:17:30;1.87;;;1.87;;
68864;SDS011;55898;52.196;4.420;2022-08-05T02:19:58;1.86;;;1.86;;
68864;SDS011;55898;52.196;4.420;2022-08-05T02:22:32;1.69;;;1.69;;
68864;SDS011;55898;52.196;4.420;2022-08-05T02:25:13;1.77;;;1.77;;
68864;SDS011;55898;52.196;4.420;2022-08-05T02:27:42;1.87;;;1.87;;
68864;SDS011;55898;52.196;4.420;2022-08-05T02:30:13;1.89;;;1.89;;
68864;SDS011;55898;52.196;4.420;2022-08-05T02:32:40;2.18;;;2.18;;
68864;SDS011;55898;52.196;4.420;2022-08-05T02:35:12;2.13;;;2.13;;
68864;SDS011;55898;52.196;4.420;2022-08-05T02:37:43;1.98;;;1.98;;
68864;SDS011;55898;52.196;4.420;2022-08-05T02:40:11;1.96;;;1.96;;
68864;SDS011;55898;52.196;4.420;2022-08-05T02:42:40;1.93;;;1.93;;
68864;SDS011;55898;52.196;4.420;2022-08-05T02:45:08;2.01;;;2.01;;
68864;SDS011;55898;52.196;4.420;2022-08-05T02:47:35;1.96;;;1.96;;
68864;SDS011;55898;52.196;4.420;2022-08-05T02:50:03;1.83;;;1.83;;
68864;SDS011;55898;52.196;4.420;2022-08-05T02:52:31;1.74;;;1.74;;
68864;SDS011;55898;52.196;4.420;2022-08-05T02:54:59;1.94;;;1.94;;
68864;SDS011;55898;52.196;4.420;2022-08-05T02:57:26;1.74;;;1.74;;
68864;SDS011;55898;52.196;4.420;2022-08-05T02:59:52;1.63;;;1.63;;
68864;SDS011;55898;52.196;4.420;2022-08-05T03:02:19;1.78;;;1.78;;
68864;SDS011;55898;52.196;4.420;2022-08-05T03:04:50;1.82;;;1.82;;
68864;SDS011;55898;52.196;4.420;2022-08-05T03:07:21;1.56;;;1.56;;
68864;SDS011;55898;52.196;4.420;2022-08-05T03:09:48;1.64;;;1.64;;
68864;SDS011;55898;52.196;4.420;2022-08-05T03:12:30;1.72;;;1.72;;
68864;SDS011;55898;52.196;4.420;2022-08-05T03:14:59;1.39;;;1.39;;
68864;SDS011;55898;52.196;4.420;2022-08-05T03:17:25;1.56;;;1.56;;
68864;SDS011;55898;52.196;4.420;2022-08-05T03:19:51;1.51;;;1.51;;
68864;SDS011;55898;52.196;4.420;2022-08-05T03:22:17;1.42;;;1.42;;
68864;SDS011;55898;52.196;4.420;2022-08-05T03:24:43;1.46;;;1.46;;
68864;SDS011;55898;52.196;4.420;2022-08-05T03:27:10;1.40;;;1.40;;
68864;SDS011;55898;52.196;4.420;2022-08-05T03:29:36;1.29;;;1.29;;
68864;SDS011;55898;52.196;4.420;2022-08-05T03:32:05;1.28;;;1.28;;
68864;SDS011;55898;52.196;4.420;2022-08-05T03:34:32;1.32;;;1.32;;
68864;SDS011;55898;52.196;4.420;2022-08-05T03:36:59;1.33;;;1.33;;
68864;SDS011;55898;52.196;4.420;2022-08-05T03:39:25;1.38;;;1.38;;
68864;SDS011;55898;52.196;4.420;2022-08-05T03:41:50;1.22;;;1.22;;
68864;SDS011;55898;52.196;4.420;2022-08-05T03:44:15;1.27;;;1.27;;
68864;SDS011;55898;52.196;4.420;2022-08-05T03:46:41;1.09;;;1.09;;
68864;SDS011;55898;52.196;4.420;2022-08-05T03:49:06;1.12;;;1.12;;
68864;SDS011;55898;52.196;4.420;2022-08-05T03:51:37;1.10;;;1.10;;
68864;SDS011;55898;52.196;4.420;2022-08-05T03:57:01;1.05;;;1.05;;
68864;SDS011;55898;52.196;4.420;2022-08-05T03:59:42;1.00;;;1.00;;
68864;SDS011;55898;52.196;4.420;2022-08-05T04:02:13;0.97;;;0.97;;
68864;SDS011;55898;52.196;4.420;2022-08-05T04:04:41;1.07;;;1.07;;
68864;SDS011;55898;52.196;4.420;2022-08-05T04:07:08;0.92;;;0.92;;
68864;SDS011;55898;52.196;4.420;2022-08-05T04:09:35;0.98;;;0.98;;
68864;SDS011;55898;52.196;4.420;2022-08-05T04:12:02;1.11;;;1.11;;
68864;SDS011;55898;52.196;4.420;2022-08-05T04:14:27;1.15;;;1.15;;
68864;SDS011;55898;52.196;4.420;2022-08-05T04:16:54;1.01;;;1.01;;
68864;SDS011;55898;52.196;4.420;2022-08-05T04:19:20;1.06;;;1.06;;
68864;SDS011;55898;52.196;4.420;2022-08-05T04:21:45;1.10;;;1.10;;
68864;SDS011;55898;52.196;4.420;2022-08-05T04:24:11;1.12;;;1.12;;
68864;SDS011;55898;52.196;4.420;2022-08-05T04:26:37;1.03;;;1.03;;
68864;SDS011;55898;52.196;4.420;2022-08-05T04:29:02;0.96;;;0.96;;
68864;SDS011;55898;52.196;4.420;2022-08-05T04:31:28;1.06;;;1.06;;
68864;SDS011;55898;52.196;4.420;2022-08-05T04:33:53;0.98;;;0.98;;
68864;SDS011;55898;52.196;4.420;2022-08-05T04:36:19;0.93;;;0.93;;
68864;SDS011;55898;52.196;4.420;2022-08-05T04:38:45;1.05;;;1.05;;
68864;SDS011;55898;52.196;4.420;2022-08-05T04:41:10;1.02;;;1.02;;
68864;SDS011;55898;52.196;4.420;2022-08-05T04:43:36;1.03;;;1.03;;
68864;SDS011;55898;52.196;4.420;2022-08-05T04:46:03;1.05;;;1.05;;
68864;SDS011;55898;52.196;4.420;2022-08-05T04:48:29;0.97;;;0.97;;
68864;SDS011;55898;52.196;4.420;2022-08-05T04:50:54;1.08;;;1.08;;
68864;SDS011;55898;52.196;4.420;2022-08-05T04:53:21;1.05;;;1.05;;
68864;SDS011;55898;52.196;4.420;2022-08-05T04:55:46;1.12;;;1.12;;
68864;SDS011;55898;52.196;4.420;2022-08-05T04:58:14;0.98;;;0.98;;
68864;SDS011;55898;52.196;4.420;2022-08-05T05:00:41;1.02;;;1.02;;
68864;SDS011;55898;52.196;4.420;2022-08-05T05:03:07;1.16;;;1.16;;
68864;SDS011;55898;52.196;4.420;2022-08-05T05:05:34;1.04;;;1.04;;
68864;SDS011;55898;52.196;4.420;2022-08-05T05:08:01;1.09;;;1.09;;
68864;SDS011;55898;52.196;4.420;2022-08-05T05:10:32;0.99;;;0.99;;
68864;SDS011;55898;52.196;4.420;2022-08-05T05:13:06;1.15;;;1.15;;
68864;SDS011;55898;52.196;4.420;2022-08-05T05:15:32;0.93;;;0.93;;
68864;SDS011;55898;52.196;4.420;2022-08-05T05:17:57;1.13;;;1.13;;
68864;SDS011;55898;52.196;4.420;2022-08-05T05:20:23;1.05;;;1.05;;
68864;SDS011;55898;52.196;4.420;2022-08-05T05:22:49;1.22;;;1.22;;
68864;SDS011;55898;52.196;4.420;2022-08-05T05:25:14;1.10;;;1.10;;
68864;SDS011;55898;52.196;4.420;2022-08-05T05:27:39;1.03;;;1.03;;
68864;SDS011;55898;52.196;4.420;2022-08-05T05:30:05;0.89;;;0.89;;
68864;SDS011;55898;52.196;4.420;2022-08-05T05:32:31;0.88;;;0.88;;
68864;SDS011;55898;52.196;4.420;2022-08-05T05:34:57;0.83;;;0.83;;
68864;SDS011;55898;52.196;4.420;2022-08-05T05:37:22;1.04;;;1.04;;
68864;SDS011;55898;52.196;4.420;2022-08-05T05:39:48;1.00;;;1.00;;
68864;SDS011;55898;52.196;4.420;2022-08-05T05:42:13;0.98;;;0.98;;
68864;SDS011;55898;52.196;4.420;2022-08-05T05:44:39;0.98;;;0.98;;
68864;SDS011;55898;52.196;4.420;2022-08-05T05:47:04;0.98;;;0.98;;
68864;SDS011;55898;52.196;4.420;2022-08-05T05:49:30;0.92;;;0.92;;
68864;SDS011;55898;52.196;4.420;2022-08-05T05:51:56;0.93;;;0.93;;
68864;SDS011;55898;52.196;4.420;2022-08-05T05:54:21;0.84;;;0.84;;
68864;SDS011;55898;52.196;4.420;2022-08-05T05:56:47;0.72;;;0.72;;
68864;SDS011;55898;52.196;4.420;2022-08-05T05:59:12;0.66;;;0.66;;
68864;SDS011;55898;52.196;4.420;2022-08-05T06:01:39;0.86;;;0.86;;
68864;SDS011;55898;52.196;4.420;2022-08-05T06:04:09;0.77;;;0.77;;
68864;SDS011;55898;52.196;4.420;2022-08-05T06:06:36;0.72;;;0.72;;
68864;SDS011;55898;52.196;4.420;2022-08-05T06:09:03;0.71;;;0.71;;
68864;SDS011;55898;52.196;4.420;2022-08-05T06:11:32;0.85;;;0.85;;
68864;SDS011;55898;52.196;4.420;2022-08-05T06:13:58;0.63;;;0.63;;
68864;SDS011;55898;52.196;4.420;2022-08-05T06:16:25;0.69;;;0.69;;
68864;SDS011;55898;52.196;4.420;2022-08-05T06:18:50;0.83;;;0.83;;
68864;SDS011;55898;52.196;4.420;2022-08-05T06:21:16;0.59;;;0.59;;
68864;SDS011;55898;52.196;4.420;2022-08-05T06:23:42;0.71;;;0.71;;
68864;SDS011;55898;52.196;4.420;2022-08-05T06:26:07;0.68;;;0.68;;
68864;SDS011;55898;52.196;4.420;2022-08-05T06:28:33;0.69;;;0.69;;
68864;SDS011;55898;52.196;4.420;2022-08-05T06:30:58;0.81;;;0.81;;
68864;SDS011;55898;52.196;4.420;2022-08-05T06:33:24;0.74;;;0.74;;
68864;SDS011;55898;52.196;4.420;2022-08-05T06:35:50;0.73;;;0.73;;
68864;SDS011;55898;52.196;4.420;2022-08-05T06:38:16;0.62;;;0.62;;
68864;SDS011;55898;52.196;4.420;2022-08-05T06:40:41;0.60;;;0.60;;
68864;SDS011;55898;52.196;4.420;2022-08-05T06:43:07;0.59;;;0.59;;
68864;SDS011;55898;52.196;4.420;2022-08-05T06:45:33;0.61;;;0.61;;
68864;SDS011;55898;52.196;4.420;2022-08-05T06:47:59;0.51;;;0.51;;
68864;SDS011;55898;52.196;4.420;2022-08-05T06:50:24;0.51;;;0.51;;
68864;SDS011;55898;52.196;4.420;2022-08-05T06:52:51;0.70;;;0.70;;
68864;SDS011;55898;52.196;4.420;2022-08-05T06:55:16;0.62;;;0.62;;
68864;SDS011;55898;52.196;4.420;2022-08-05T06:57:42;0.63;;;0.63;;
68864;SDS011;55898;52.196;4.420;2022-08-05T07:00:08;0.68;;;0.68;;
68864;SDS011;55898;52.196;4.420;2022-08-05T07:02:41;0.66;;;0.66;;
68864;SDS011;55898;52.196;4.420;2022-08-05T07:05:10;0.79;;;0.79;;
68864;SDS011;55898;52.196;4.420;2022-08-05T07:07:37;0.67;;;0.67;;
68864;SDS011;55898;52.196;4.420;2022-08-05T07:10:03;0.58;;;0.58;;
68864;SDS011;55898;52.196;4.420;2022-08-05T07:12:30;0.71;;;0.71;;
68864;SDS011;55898;52.196;4.420;2022-08-05T07:15:14;0.65;;;0.65;;
68864;SDS011;55898;52.196;4.420;2022-08-05T07:17:58;0.66;;;0.66;;
68864;SDS011;55898;52.196;4.420;2022-08-05T07:20:23;0.70;;;0.70;;
68864;SDS011;55898;52.196;4.420;2022-08-05T07:22:49;0.56;;;0.56;;
68864;SDS011;55898;52.196;4.420;2022-08-05T07:25:14;0.71;;;0.71;;
68864;SDS011;55898;52.196;4.420;2022-08-05T07:27:39;0.61;;;0.61;;
68864;SDS011;55898;52.196;4.420;2022-08-05T07:30:05;0.59;;;0.59;;
68864;SDS011;55898;52.196;4.420;2022-08-05T07:32:35;0.66;;;0.66;;
68864;SDS011;55898;52.196;4.420;2022-08-05T07:35:01;0.67;;;0.67;;
68864;SDS011;55898;52.196;4.420;2022-08-05T07:37:30;0.64;;;0.64;;
68864;SDS011;55898;52.196;4.420;2022-08-05T07:39:56;0.49;;;0.49;;
68864;SDS011;55898;52.196;4.420;2022-08-05T07:42:21;0.49;;;0.49;;
68864;SDS011;55898;52.196;4.420;2022-08-05T07:44:47;0.61;;;0.61;;
68864;SDS011;55898;52.196;4.420;2022-08-05T07:47:12;0.67;;;0.67;;
68864;SDS011;55898;52.196;4.420;2022-08-05T07:49:38;0.65;;;0.65;;
68864;SDS011;55898;52.196;4.420;2022-08-05T07:52:03;0.56;;;0.56;;
68864;SDS011;55898;52.196;4.420;2022-08-05T07:54:29;1.10;;;1.10;;
68864;SDS011;55898;52.196;4.420;2022-08-05T07:56:54;0.54;;;0.54;;
68864;SDS011;55898;52.196;4.420;2022-08-05T07:59:20;0.50;;;0.50;;
68864;SDS011;55898;52.196;4.420;2022-08-05T08:01:45;0.53;;;0.53;;
68864;SDS011;55898;52.196;4.420;2022-08-05T08:04:11;0.41;;;0.41;;
68864;SDS011;55898;52.196;4.420;2022-08-05T08:06:36;0.42;;;0.42;;
68864;SDS011;55898;52.196;4.420;2022-08-05T08:09:02;0.42;;;0.42;;
68864;SDS011;55898;52.196;4.420;2022-08-05T08:11:27;0.41;;;0.41;;
68864;SDS011;55898;52.196;4.420;2022-08-05T08:13:53;0.48;;;0.48;;
68864;SDS011;55898;52.196;4.420;2022-08-05T08:16:19;0.59;;;0.59;;
68864;SDS011;55898;52.196;4.420;2022-08-05T08:18:45;0.51;;;0.51;;
68864;SDS011;55898;52.196;4.420;2022-08-05T08:21:10;0.35;;;0.35;;
68864;SDS011;55898;52.196;4.420;2022-08-05T08:23:36;0.41;;;0.41;;
68864;SDS011;55898;52.196;4.420;2022-08-05T08:26:01;0.44;;;0.44;;
68864;SDS011;55898;52.196;4.420;2022-08-05T08:28:27;0.42;;;0.42;;
68864;SDS011;55898;52.196;4.420;2022-08-05T08:30:53;0.52;;;0.50;;
68864;SDS011;55898;52.196;4.420;2022-08-05T08:33:18;0.68;;;0.64;;
68864;SDS011;55898;52.196;4.420;2022-08-05T08:35:44;0.76;;;0.67;;
68864;SDS011;55898;52.196;4.420;2022-08-05T08:38:09;0.44;;;0.39;;
68864;SDS011;55898;52.196;4.420;2022-08-05T08:40:35;0.57;;;0.49;;
68864;SDS011;55898;52.196;4.420;2022-08-05T08:43:01;0.64;;;0.55;;
68864;SDS011;55898;52.196;4.420;2022-08-05T08:45:28;0.77;;;0.66;;
68864;SDS011;55898;52.196;4.420;2022-08-05T08:47:55;0.53;;;0.45;;
68864;SDS011;55898;52.196;4.420;2022-08-05T08:50:26;0.57;;;0.48;;
68864;SDS011;55898;52.196;4.420;2022-08-05T08:52:53;0.51;;;0.43;;
68864;SDS011;55898;52.196;4.420;2022-08-05T08:55:25;0.53;;;0.45;;
68864;SDS011;55898;52.196;4.420;2022-08-05T08:57:51;0.83;;;0.70;;
68864;SDS011;55898;52.196;4.420;2022-08-05T09:00:16;0.56;;;0.47;;
68864;SDS011;55898;52.196;4.420;2022-08-05T09:02:43;0.63;;;0.53;;
68864;SDS011;55898;52.196;4.420;2022-08-05T09:05:10;0.66;;;0.55;;
68864;SDS011;55898;52.196;4.420;2022-08-05T09:07:36;0.56;;;0.47;;
68864;SDS011;55898;52.196;4.420;2022-08-05T09:10:02;0.75;;;0.63;;
68864;SDS011;55898;52.196;4.420;2022-08-05T09:12:28;0.87;;;0.74;;
68864;SDS011;55898;52.196;4.420;2022-08-05T09:14:54;0.67;;;0.55;;
68864;SDS011;55898;52.196;4.420;2022-08-05T09:17:19;0.82;;;0.69;;
68864;SDS011;55898;52.196;4.420;2022-08-05T09:19:45;0.56;;;0.47;;
68864;SDS011;55898;52.196;4.420;2022-08-05T09:22:11;0.59;;;0.50;;
68864;SDS011;55898;52.196;4.420;2022-08-05T09:24:36;0.53;;;0.44;;
68864;SDS011;55898;52.196;4.420;2022-08-05T09:27:03;0.56;;;0.47;;
68864;SDS011;55898;52.196;4.420;2022-08-05T09:29:50;0.51;;;0.43;;
68864;SDS011;55898;52.196;4.420;2022-08-05T09:32:16;0.65;;;0.55;;
68864;SDS011;55898;52.196;4.420;2022-08-05T09:34:50;0.72;;;0.61;;
68864;SDS011;55898;52.196;4.420;2022-08-05T09:37:20;0.63;;;0.52;;
68864;SDS011;55898;52.196;4.420;2022-08-05T09:39:47;0.60;;;0.50;;
68864;SDS011;55898;52.196;4.420;2022-08-05T09:42:14;1.17;;;1.00;;
68864;SDS011;55898;52.196;4.420;2022-08-05T09:44:45;0.53;;;0.47;;
68864;SDS011;55898;52.196;4.420;2022-08-05T09:47:14;0.50;;;0.44;;
68864;SDS011;55898;52.196;4.420;2022-08-05T09:49:48;0.67;;;0.59;;
68864;SDS011;55898;52.196;4.420;2022-08-05T09:55:11;0.56;;;0.49;;
68864;SDS011;55898;52.196;4.420;2022-08-05T09:57:44;0.63;;;0.55;;
68864;SDS011;55898;52.196;4.420;2022-08-05T10:02:44;0.56;;;0.48;;
68864;SDS011;55898;52.196;4.420;2022-08-05T10:05:17;0.54;;;0.46;;
68864;SDS011;55898;52.196;4.420;2022-08-05T10:07:45;0.49;;;0.42;;
68864;SDS011;55898;52.196;4.420;2022-08-05T10:10:19;0.43;;;0.37;;
68864;SDS011;55898;52.196;4.420;2022-08-05T10:12:54;0.56;;;0.47;;
68864;SDS011;55898;52.196;4.420;2022-08-05T10:23:13;0.59;;;0.51;;
68864;SDS011;55898;52.196;4.420;2022-08-05T10:25:43;0.65;;;0.55;;
68864;SDS011;55898;52.196;4.420;2022-08-05T10:28:08;0.55;;;0.48;;
68864;SDS011;55898;52.196;4.420;2022-08-05T10:30:34;0.53;;;0.46;;
68864;SDS011;55898;52.196;4.420;2022-08-05T10:33:03;0.49;;;0.42;;
68864;SDS011;55898;52.196;4.420;2022-08-05T10:35:30;0.55;;;0.49;;
68864;SDS011;55898;52.196;4.420;2022-08-05T10:37:57;0.65;;;0.57;;
68864;SDS011;55898;52.196;4.420;2022-08-05T10:43:07;0.61;;;0.53;;
68864;SDS011;55898;52.196;4.420;2022-08-05T10:46:04;0.47;;;0.42;;
68864;SDS011;55898;52.196;4.420;2022-08-05T10:48:41;0.42;;;0.38;;
68864;SDS011;55898;52.196;4.420;2022-08-05T10:51:10;0.42;;;0.38;;
68864;SDS011;55898;52.196;4.420;2022-08-05T10:53:43;0.49;;;0.45;;
68864;SDS011;55898;52.196;4.420;2022-08-05T10:56:19;0.45;;;0.41;;
68864;SDS011;55898;52.196;4.420;2022-08-05T11:01:27;0.47;;;0.43;;
68864;SDS011;55898;52.196;4.420;2022-08-05T11:06:26;0.38;;;0.35;;
68864;SDS011;55898;52.196;4.420;2022-08-05T11:11:46;0.37;;;0.36;;
68864;SDS011;55898;52.196;4.420;2022-08-05T11:14:26;0.58;;;0.56;;
68864;SDS011;55898;52.196;4.420;2022-08-05T11:19:48;0.34;;;0.33;;
68864;SDS011;55898;52.196;4.420;2022-08-05T11:36:05;0.38;;;0.38;;
68864;SDS011;55898;52.196;4.420;2022-08-05T11:41:16;0.36;;;0.35;;
68864;SDS011;55898;52.196;4.420;2022-08-05T11:46:26;0.40;;;0.37;;
68864;SDS011;55898;52.196;4.420;2022-08-05T11:48:53;0.38;;;0.38;;
68864;SDS011;55898;52.196;4.420;2022-08-05T11:51:19;0.43;;;0.40;;
68864;SDS011;55898;52.196;4.420;2022-08-05T11:53:46;0.42;;;0.37;;
68864;SDS011;55898;52.196;4.420;2022-08-05T11:56:12;0.59;;;0.52;;
68864;SDS011;55898;52.196;4.420;2022-08-05T11:58:39;0.45;;;0.40;;
68864;SDS011;55898;52.196;4.420;2022-08-05T12:01:07;0.40;;;0.36;;
68864;SDS011;55898;52.196;4.420;2022-08-05T12:03:40;0.46;;;0.42;;
68864;SDS011;55898;52.196;4.420;2022-08-05T12:06:06;0.43;;;0.38;;
68864;SDS011;55898;52.196;4.420;2022-08-05T12:08:32;0.46;;;0.41;;
68864;SDS011;55898;52.196;4.420;2022-08-05T12:10:58;0.44;;;0.39;;
68864;SDS011;55898;52.196;4.420;2022-08-05T12:13:27;0.32;;;0.30;;
68864;SDS011;55898;52.196;4.420;2022-08-05T12:15:53;0.41;;;0.41;;
68864;SDS011;55898;52.196;4.420;2022-08-05T12:18:18;0.38;;;0.37;;
68864;SDS011;55898;52.196;4.420;2022-08-05T12:20:53;0.31;;;0.30;;
68864;SDS011;55898;52.196;4.420;2022-08-05T12:23:18;0.26;;;0.25;;
68864;SDS011;55898;52.196;4.420;2022-08-05T12:25:53;0.38;;;0.37;;
68864;SDS011;55898;52.196;4.420;2022-08-05T12:28:32;0.29;;;0.29;;
68864;SDS011;55898;52.196;4.420;2022-08-05T12:31:02;0.42;;;0.38;;
68864;SDS011;55898;52.196;4.420;2022-08-05T12:33:28;0.57;;;0.50;;
68864;SDS011;55898;52.196;4.420;2022-08-05T12:35:54;0.41;;;0.36;;
68864;SDS011;55898;52.196;4.420;2022-08-05T12:38:23;0.68;;;0.60;;
68864;SDS011;55898;52.196;4.420;2022-08-05T12:40:49;0.51;;;0.44;;
68864;SDS011;55898;52.196;4.420;2022-08-05T12:43:15;0.50;;;0.44;;
68864;SDS011;55898;52.196;4.420;2022-08-05T12:45:50;0.52;;;0.46;;
68864;SDS011;55898;52.196;4.420;2022-08-05T12:48:17;0.49;;;0.44;;
68864;SDS011;55898;52.196;4.420;2022-08-05T12:50:43;0.32;;;0.29;;
68864;SDS011;55898;52.196;4.420;2022-08-05T12:53:39;0.36;;;0.32;;
68864;SDS011;55898;52.196;4.420;2022-08-05T12:56:15;0.43;;;0.38;;
68864;SDS011;55898;52.196;4.420;2022-08-05T13:04:42;0.60;;;0.52;;
68864;SDS011;55898;52.196;4.420;2022-08-05T13:07:09;0.74;;;0.64;;
68864;SDS011;55898;52.196;4.420;2022-08-05T13:09:49;0.79;;;0.67;;
68864;SDS011;55898;52.196;4.420;2022-08-05T13:12:16;0.70;;;0.59;;
68864;SDS011;55898;52.196;4.420;2022-08-05T13:14:43;0.62;;;0.53;;
68864;SDS011;55898;52.196;4.420;2022-08-05T13:17:15;0.59;;;0.49;;
68864;SDS011;55898;52.196;4.420;2022-08-05T13:22:30;0.61;;;0.52;;
68864;SDS011;55898;52.196;4.420;2022-08-05T13:24:57;0.70;;;0.60;;
68864;SDS011;55898;52.196;4.420;2022-08-05T13:27:23;0.71;;;0.61;;
68864;SDS011;55898;52.196;4.420;2022-08-05T13:29:49;0.88;;;0.76;;
68864;SDS011;55898;52.196;4.420;2022-08-05T13:32:14;0.70;;;0.61;;
68864;SDS011;55898;52.196;4.420;2022-08-05T13:34:40;0.89;;;0.77;;
68864;SDS011;55898;52.196;4.420;2022-08-05T13:37:05;0.89;;;0.76;;
68864;SDS011;55898;52.196;4.420;2022-08-05T13:39:30;0.56;;;0.48;;
68864;SDS011;55898;52.196;4.420;2022-08-05T13:41:56;0.62;;;0.52;;
68864;SDS011;55898;52.196;4.420;2022-08-05T13:44:21;0.79;;;0.67;;
68864;SDS011;55898;52.196;4.420;2022-08-05T13:46:47;0.91;;;0.77;;
68864;SDS011;55898;52.196;4.420;2022-08-05T13:49:12;0.82;;;0.70;;
68864;SDS011;55898;52.196;4.420;2022-08-05T13:51:38;1.08;;;0.91;;
68864;SDS011;55898;52.196;4.420;2022-08-05T13:54:06;0.90;;;0.75;;
68864;SDS011;55898;52.196;4.420;2022-08-05T13:56:32;0.94;;;0.79;;
68864;SDS011;55898;52.196;4.420;2022-08-05T13:58:58;0.86;;;0.71;;
68864;SDS011;55898;52.196;4.420;2022-08-05T14:01:23;0.88;;;0.74;;
68864;SDS011;55898;52.196;4.420;2022-08-05T14:03:49;0.84;;;0.70;;
68864;SDS011;55898;52.196;4.420;2022-08-05T14:06:34;1.16;;;0.94;;
68864;SDS011;55898;52.196;4.420;2022-08-05T14:09:00;1.00;;;0.80;;
68864;SDS011;55898;52.196;4.420;2022-08-05T14:11:26;0.85;;;0.69;;
68864;SDS011;55898;52.196;4.420;2022-08-05T14:13:52;1.07;;;0.86;;
68864;SDS011;55898;52.196;4.420;2022-08-05T14:16:18;0.76;;;0.61;;
68864;SDS011;55898;52.196;4.420;2022-08-05T14:18:43;0.84;;;0.66;;
68864;SDS011;55898;52.196;4.420;2022-08-05T14:21:09;0.84;;;0.66;;
68864;SDS011;55898;52.196;4.420;2022-08-05T14:23:34;0.75;;;0.60;;
68864;SDS011;55898;52.196;4.420;2022-08-05T14:26:00;0.90;;;0.74;;
68864;SDS011;55898;52.196;4.420;2022-08-05T14:28:28;0.87;;;0.71;;
68864;SDS011;55898;52.196;4.420;2022-08-05T14:30:58;0.78;;;0.64;;
68864;SDS011;55898;52.196;4.420;2022-08-05T14:33:24;0.98;;;0.80;;
68864;SDS011;55898;52.196;4.420;2022-08-05T14:35:50;0.69;;;0.57;;
68864;SDS011;55898;52.196;4.420;2022-08-05T14:38:16;0.83;;;0.67;;
68864;SDS011;55898;52.196;4.420;2022-08-05T14:40:41;0.82;;;0.65;;
68864;SDS011;55898;52.196;4.420;2022-08-05T14:43:07;0.97;;;0.76;;
68864;SDS011;55898;52.196;4.420;2022-08-05T14:45:32;1.06;;;0.83;;
68864;SDS011;55898;52.196;4.420;2022-08-05T14:47:57;0.94;;;0.74;;
68864;SDS011;55898;52.196;4.420;2022-08-05T14:50:23;1.17;;;0.93;;
68864;SDS011;55898;52.196;4.420;2022-08-05T14:52:48;1.10;;;0.88;;
68864;SDS011;55898;52.196;4.420;2022-08-05T14:55:14;1.17;;;0.93;;
68864;SDS011;55898;52.196;4.420;2022-08-05T14:57:39;1.11;;;0.88;;
68864;SDS011;55898;52.196;4.420;2022-08-05T15:00:05;1.26;;;1.01;;
68864;SDS011;55898;52.196;4.420;2022-08-05T15:02:31;1.15;;;0.91;;
68864;SDS011;55898;52.196;4.420;2022-08-05T15:04:56;1.10;;;0.86;;
68864;SDS011;55898;52.196;4.420;2022-08-05T15:07:22;1.05;;;0.83;;
68864;SDS011;55898;52.196;4.420;2022-08-05T15:09:47;1.41;;;1.11;;
68864;SDS011;55898;52.196;4.420;2022-08-05T15:12:13;1.23;;;0.97;;
68864;SDS011;55898;52.196;4.420;2022-08-05T15:14:38;1.23;;;0.96;;
68864;SDS011;55898;52.196;4.420;2022-08-05T15:17:04;0.95;;;0.74;;
68864;SDS011;55898;52.196;4.420;2022-08-05T15:19:29;1.05;;;0.82;;
68864;SDS011;55898;52.196;4.420;2022-08-05T15:21:55;1.28;;;0.97;;
68864;SDS011;55898;52.196;4.420;2022-08-05T15:24:21;1.06;;;0.80;;
68864;SDS011;55898;52.196;4.420;2022-08-05T15:26:46;1.24;;;0.95;;
68864;SDS011;55898;52.196;4.420;2022-08-05T15:29:12;1.29;;;1.02;;
68864;SDS011;55898;52.196;4.420;2022-08-05T15:31:37;0.82;;;0.66;;
68864;SDS011;55898;52.196;4.420;2022-08-05T15:34:03;0.80;;;0.65;;
68864;SDS011;55898;52.196;4.420;2022-08-05T15:36:28;1.00;;;0.80;;
68864;SDS011;55898;52.196;4.420;2022-08-05T15:38:54;1.00;;;0.78;;
68864;SDS011;55898;52.196;4.420;2022-08-05T15:41:20;0.95;;;0.73;;
68864;SDS011;55898;52.196;4.420;2022-08-05T15:43:48;0.98;;;0.75;;
68864;SDS011;55898;52.196;4.420;2022-08-05T15:46:13;0.97;;;0.75;;
68864;SDS011;55898;52.196;4.420;2022-08-05T15:48:39;0.90;;;0.69;;
68864;SDS011;55898;52.196;4.420;2022-08-05T15:51:04;1.06;;;0.82;;
68864;SDS011;55898;52.196;4.420;2022-08-05T15:53:30;1.07;;;0.82;;
68864;SDS011;55898;52.196;4.420;2022-08-05T15:55:56;1.41;;;1.06;;
68864;SDS011;55898;52.196;4.420;2022-08-05T15:58:21;1.29;;;0.96;;
68864;SDS011;55898;52.196;4.420;2022-08-05T16:00:47;1.11;;;0.84;;